createdAt,value
2017-02-02T00:00:05.806Z,0
2017-02-02T00:01:05.790Z,0
2017-02-02T00:02:05.772Z,0
2017-02-02T00:03:05.753Z,0
2017-02-02T00:04:05.353Z,0
2017-02-02T00:05:05.725Z,0
2017-02-02T00:06:05.701Z,0
2017-02-02T00:07:05.687Z,0
2017-02-02T00:08:05.284Z,0
2017-02-02T00:09:05.648Z,0
2017-02-02T00:10:05.245Z,0
2017-02-02T00:11:05.611Z,0
2017-02-02T00:12:05.208Z,0
2017-02-02T00:13:05.576Z,0
2017-02-02T00:14:05.561Z,0
2017-02-02T00:15:05.544Z,0
2017-02-02T00:16:05.524Z,0
2017-02-02T00:17:05.506Z,0
2017-02-02T00:18:05.488Z,0
2017-02-02T00:19:05.474Z,0
2017-02-02T00:20:05.461Z,0
2017-02-02T00:21:05.438Z,0
2017-02-02T00:22:05.422Z,0
2017-02-02T00:23:05.401Z,0
2017-02-02T00:24:05.386Z,0
2017-02-02T00:25:05.368Z,0
2017-02-02T00:26:05.348Z,0
2017-02-02T00:27:05.335Z,0
2017-02-02T00:28:05.313Z,0
2017-02-02T00:29:05.294Z,0
2017-02-02T00:30:04.895Z,0
2017-02-02T00:31:05.263Z,0
2017-02-02T00:32:05.242Z,0
2017-02-02T00:33:05.221Z,0
2017-02-02T00:34:05.214Z,0
2017-02-02T00:35:05.194Z,0
2017-02-02T00:36:05.171Z,0
2017-02-02T00:37:05.155Z,0
2017-02-02T00:38:05.136Z,0
2017-02-02T00:39:05.116Z,0
2017-02-02T00:40:05.102Z,0
2017-02-02T00:41:05.080Z,0
2017-02-02T00:42:05.064Z,0
2017-02-02T00:43:05.045Z,0
2017-02-02T00:44:05.029Z,0
2017-02-02T00:45:05.010Z,0
2017-02-02T00:46:04.995Z,0
2017-02-02T00:47:04.979Z,0
2017-02-02T00:48:04.957Z,0
2017-02-02T00:49:04.945Z,0
2017-02-02T00:50:04.921Z,0
2017-02-02T00:51:04.904Z,0
2017-02-02T00:52:04.888Z,0
2017-02-02T00:53:04.870Z,0
2017-02-02T00:54:04.851Z,0
2017-02-02T00:55:04.834Z,0
2017-02-02T00:56:04.818Z,0
2017-02-02T00:57:04.798Z,0
2017-02-02T00:58:04.782Z,0
2017-02-02T00:59:04.764Z,0
2017-02-02T01:00:04.746Z,0
2017-02-02T01:01:04.726Z,0
2017-02-02T01:02:04.709Z,0
2017-02-02T01:03:04.693Z,0
2017-02-02T01:04:04.675Z,0
2017-02-02T01:05:04.665Z,0
2017-02-02T01:06:04.639Z,0
2017-02-02T01:07:04.627Z,0
2017-02-02T01:08:04.604Z,0
2017-02-02T01:09:04.242Z,0
2017-02-02T01:10:04.571Z,0
2017-02-02T01:11:04.172Z,0
2017-02-02T01:12:04.533Z,0
2017-02-02T01:13:04.514Z,0
2017-02-02T01:14:04.497Z,0
2017-02-02T01:15:04.489Z,0
2017-02-02T01:16:04.463Z,0
2017-02-02T01:17:04.057Z,0
2017-02-02T01:18:04.426Z,0
2017-02-02T01:19:04.415Z,0
2017-02-02T01:20:04.393Z,0
2017-02-02T01:21:04.370Z,0
2017-02-02T01:22:04.359Z,0
2017-02-02T01:23:03.954Z,0
2017-02-02T01:24:04.323Z,0
2017-02-02T01:25:04.339Z,0
2017-02-02T01:26:04.280Z,0
2017-02-02T01:27:03.881Z,0
2017-02-02T01:28:04.255Z,0
2017-02-02T01:29:04.231Z,0
2017-02-02T01:30:04.219Z,0
2017-02-02T01:31:04.199Z,0
2017-02-02T01:32:04.176Z,0
2017-02-02T01:33:04.158Z,0
2017-02-02T01:34:04.139Z,0
2017-02-02T01:35:04.136Z,0
2017-02-02T01:36:04.105Z,0
2017-02-02T01:37:04.087Z,0
2017-02-02T01:38:04.074Z,0
2017-02-02T01:39:04.051Z,0
2017-02-02T01:40:04.037Z,0
2017-02-02T01:41:04.020Z,0
2017-02-02T01:42:03.612Z,0
2017-02-02T01:43:03.986Z,0
2017-02-02T01:44:03.962Z,0
2017-02-02T01:45:03.942Z,0
2017-02-02T01:46:03.927Z,0
2017-02-02T01:47:03.909Z,0
2017-02-02T01:48:03.505Z,0
2017-02-02T01:49:03.875Z,0
2017-02-02T01:50:03.857Z,0
2017-02-02T01:51:03.843Z,0
2017-02-02T01:52:03.824Z,0
2017-02-02T01:53:03.803Z,0
2017-02-02T01:54:03.789Z,0
2017-02-02T01:55:03.771Z,0
2017-02-02T01:56:03.393Z,0
2017-02-02T01:57:03.347Z,0
2017-02-02T01:58:03.722Z,0
2017-02-02T01:59:03.697Z,0
2017-02-02T02:00:03.673Z,0
2017-02-02T02:01:03.656Z,0
2017-02-02T02:02:03.669Z,0
2017-02-02T02:03:03.623Z,0
2017-02-02T02:04:03.603Z,0
2017-02-02T02:05:03.589Z,0
2017-02-02T02:06:03.567Z,0
2017-02-02T02:07:03.167Z,0
2017-02-02T02:08:03.532Z,0
2017-02-02T02:09:03.516Z,0
2017-02-02T02:10:03.498Z,0
2017-02-02T02:11:03.480Z,0
2017-02-02T02:12:03.461Z,0
2017-02-02T02:13:03.442Z,0
2017-02-02T02:14:03.422Z,0
2017-02-02T02:15:03.409Z,0
2017-02-02T02:16:03.389Z,0
2017-02-02T02:17:02.984Z,0
2017-02-02T02:18:03.349Z,0
2017-02-02T02:19:03.333Z,0
2017-02-02T02:20:03.315Z,0
2017-02-02T02:21:02.910Z,0
2017-02-02T02:22:03.279Z,0
2017-02-02T02:23:03.263Z,0
2017-02-02T02:24:02.867Z,0
2017-02-02T02:25:03.231Z,0
2017-02-02T02:26:03.207Z,0
2017-02-02T02:27:03.187Z,0
2017-02-02T02:28:03.169Z,0
2017-02-02T02:29:03.151Z,0
2017-02-02T02:30:03.144Z,0
2017-02-02T02:31:03.151Z,0
2017-02-02T02:32:03.102Z,0
2017-02-02T02:33:03.081Z,0
2017-02-02T02:34:03.063Z,0
2017-02-02T02:35:03.047Z,0
2017-02-02T02:36:03.026Z,0
2017-02-02T02:37:03.010Z,0
2017-02-02T02:38:02.995Z,0
2017-02-02T02:39:02.975Z,0
2017-02-02T02:40:02.953Z,0
2017-02-02T02:41:02.935Z,0
2017-02-02T02:42:02.920Z,0
2017-02-02T02:43:02.910Z,0
2017-02-02T02:44:02.884Z,0
2017-02-02T02:45:02.863Z,0
2017-02-02T02:46:02.848Z,0
2017-02-02T02:47:02.442Z,0
2017-02-02T02:48:02.809Z,0
2017-02-02T02:49:02.794Z,0
2017-02-02T02:50:02.774Z,0
2017-02-02T02:51:02.755Z,0
2017-02-02T02:52:02.735Z,0
2017-02-02T02:53:02.718Z,0
2017-02-02T02:54:02.702Z,0
2017-02-02T02:55:02.681Z,0
2017-02-02T02:56:02.663Z,0
2017-02-02T02:57:02.647Z,0
2017-02-02T02:58:02.627Z,0
2017-02-02T02:59:02.226Z,0
2017-02-02T03:00:02.594Z,0
2017-02-02T03:01:02.577Z,0
2017-02-02T03:02:02.554Z,0
2017-02-02T03:03:02.541Z,0
2017-02-02T03:04:02.520Z,0
2017-02-02T03:05:02.122Z,0
2017-02-02T03:06:02.488Z,0
2017-02-02T03:07:02.461Z,0
2017-02-02T03:08:02.444Z,0
2017-02-02T03:09:02.425Z,0
2017-02-02T03:10:02.408Z,0
2017-02-02T03:11:02.640Z,0
2017-02-02T03:12:02.375Z,0
2017-02-02T03:13:02.355Z,0
2017-02-02T03:14:02.333Z,0
2017-02-02T03:15:02.318Z,0
2017-02-02T03:16:02.306Z,0
2017-02-02T03:17:02.283Z,0
2017-02-02T03:18:02.263Z,0
2017-02-02T03:19:02.245Z,0
2017-02-02T03:20:02.224Z,0
2017-02-02T03:21:02.208Z,0
2017-02-02T03:22:02.193Z,0
2017-02-02T03:23:02.168Z,0
2017-02-02T03:24:02.152Z,0
2017-02-02T03:25:02.136Z,0
2017-02-02T03:26:02.116Z,0
2017-02-02T03:27:02.096Z,0
2017-02-02T03:28:02.076Z,0
2017-02-02T03:29:02.057Z,0
2017-02-02T03:30:02.040Z,0
2017-02-02T03:31:02.021Z,0
2017-02-02T03:32:02.005Z,0
2017-02-02T03:33:01.984Z,0
2017-02-02T03:34:01.970Z,0
2017-02-02T03:35:01.950Z,0
2017-02-02T03:36:01.545Z,0
2017-02-02T03:37:01.914Z,0
2017-02-02T03:38:01.921Z,0
2017-02-02T03:39:01.875Z,0
2017-02-02T03:40:01.858Z,0
2017-02-02T03:41:01.838Z,0
2017-02-02T03:42:01.818Z,0
2017-02-02T03:43:01.803Z,0
2017-02-02T03:44:01.779Z,0
2017-02-02T03:45:01.766Z,0
2017-02-02T03:46:01.745Z,0
2017-02-02T03:47:01.730Z,0
2017-02-02T03:48:01.711Z,0
2017-02-02T03:49:01.690Z,0
2017-02-02T03:50:01.672Z,0
2017-02-02T03:51:01.653Z,0
2017-02-02T03:52:01.633Z,0
2017-02-02T03:53:01.649Z,0
2017-02-02T03:54:01.596Z,0
2017-02-02T03:55:01.582Z,0
2017-02-02T03:56:01.560Z,0
2017-02-02T03:57:01.543Z,0
2017-02-02T03:58:01.528Z,0
2017-02-02T03:59:01.507Z,0
2017-02-02T04:00:01.487Z,0
2017-02-02T04:01:01.472Z,0
2017-02-02T04:02:01.450Z,0
2017-02-02T04:03:01.433Z,0
2017-02-02T04:04:01.415Z,0
2017-02-02T04:05:01.399Z,0
2017-02-02T04:06:01.379Z,0
2017-02-02T04:07:01.358Z,0
2017-02-02T04:08:01.341Z,0
2017-02-02T04:09:01.322Z,0
2017-02-02T04:10:01.307Z,0
2017-02-02T04:11:01.282Z,0
2017-02-02T04:12:01.265Z,0
2017-02-02T04:13:01.249Z,0
2017-02-02T04:14:01.229Z,0
2017-02-02T04:15:01.211Z,0
2017-02-02T04:16:01.190Z,0
2017-02-02T04:17:01.173Z,0
2017-02-02T04:18:01.156Z,0
2017-02-02T04:19:01.168Z,0
2017-02-02T04:20:01.116Z,0
2017-02-02T04:21:00.714Z,0
2017-02-02T04:22:01.079Z,0
2017-02-02T04:23:01.064Z,0
2017-02-02T04:24:01.074Z,0
2017-02-02T04:25:01.023Z,0
2017-02-02T04:26:01.005Z,0
2017-02-02T04:27:00.986Z,0
2017-02-02T04:28:00.972Z,0
2017-02-02T04:29:00.981Z,0
2017-02-02T04:30:00.930Z,0
2017-02-02T04:31:00.915Z,0
2017-02-02T04:32:00.896Z,0
2017-02-02T04:33:00.876Z,0
2017-02-02T04:34:00.861Z,0
2017-02-02T04:35:00.841Z,0
2017-02-02T04:36:00.823Z,0
2017-02-02T04:37:00.802Z,0
2017-02-02T04:38:00.783Z,0
2017-02-02T04:39:00.765Z,0
2017-02-02T04:40:00.746Z,0
2017-02-02T04:41:00.730Z,0
2017-02-02T04:42:00.712Z,0
2017-02-02T04:43:00.690Z,0
2017-02-02T04:44:00.672Z,0
2017-02-02T04:45:00.653Z,0
2017-02-02T04:46:00.635Z,0
2017-02-02T04:47:00.619Z,0
2017-02-02T04:48:00.601Z,0
2017-02-02T04:49:00.580Z,0
2017-02-02T04:50:00.562Z,0
2017-02-02T04:51:00.543Z,0
2017-02-02T04:52:00.529Z,0
2017-02-02T04:53:00.506Z,0
2017-02-02T04:54:00.489Z,0
2017-02-02T04:55:00.473Z,0
2017-02-02T04:56:00.449Z,0
2017-02-02T04:57:00.430Z,0
2017-02-02T04:58:00.414Z,0
2017-02-02T04:59:00.395Z,0
2017-02-02T05:00:00.380Z,0
2017-02-02T05:01:00.363Z,0
2017-02-02T05:02:00.339Z,0
2017-02-02T05:03:00.323Z,0
2017-02-02T05:04:00.303Z,0
2017-02-02T05:05:00.284Z,0
2017-02-02T05:06:00.268Z,0
2017-02-02T05:07:00.248Z,0
2017-02-02T05:08:00.230Z,0
2017-02-02T05:09:00.210Z,0
2017-02-02T05:10:00.196Z,0
2017-02-02T05:10:59.789Z,0
2017-02-02T05:12:00.152Z,0
2017-02-02T05:13:00.137Z,0
2017-02-02T05:14:00.119Z,0
2017-02-02T05:15:00.099Z,0
2017-02-02T05:16:00.081Z,0
2017-02-02T05:17:00.062Z,0
2017-02-02T05:18:00.041Z,0
2017-02-02T05:19:00.028Z,0
2017-02-02T05:19:59.622Z,0
2017-02-02T05:20:59.986Z,0
2017-02-02T05:21:59.971Z,0
2017-02-02T05:22:59.953Z,0
2017-02-02T05:23:59.934Z,0
2017-02-02T05:24:59.917Z,0
2017-02-02T05:25:59.897Z,0
2017-02-02T05:26:59.881Z,0
2017-02-02T05:27:59.861Z,0
2017-02-02T05:28:59.843Z,0
2017-02-02T05:29:59.823Z,0
2017-02-02T05:30:59.802Z,0
2017-02-02T05:31:59.787Z,0
2017-02-02T05:32:59.768Z,0
2017-02-02T05:33:59.748Z,0
2017-02-02T05:34:59.732Z,0
2017-02-02T05:35:59.713Z,0
2017-02-02T05:36:59.696Z,0
2017-02-02T05:37:59.676Z,0
2017-02-02T05:38:59.658Z,0
2017-02-02T05:39:59.639Z,0
2017-02-02T05:40:59.620Z,0
2017-02-02T05:41:59.639Z,0
2017-02-02T05:42:59.586Z,0
2017-02-02T05:43:59.566Z,0
2017-02-02T05:44:59.544Z,0
2017-02-02T05:45:59.538Z,0
2017-02-02T05:46:59.510Z,0
2017-02-02T05:47:59.490Z,0
2017-02-02T05:48:59.475Z,0
2017-02-02T05:49:59.463Z,0
2017-02-02T05:50:59.438Z,0
2017-02-02T05:51:59.418Z,0
2017-02-02T05:52:59.399Z,0
2017-02-02T05:53:59.382Z,0
2017-02-02T05:54:59.364Z,0
2017-02-02T05:55:59.349Z,0
2017-02-02T05:56:59.331Z,0
2017-02-02T05:57:59.311Z,0
2017-02-02T05:58:59.298Z,20
2017-02-02T05:59:59.278Z,36
2017-02-02T06:00:59.253Z,40
2017-02-02T06:01:59.239Z,40
2017-02-02T06:02:58.830Z,40
2017-02-02T06:03:59.197Z,44
2017-02-02T06:04:59.178Z,44
2017-02-02T06:05:59.163Z,44
2017-02-02T06:06:59.142Z,44
2017-02-02T06:07:59.127Z,44
2017-02-02T06:08:59.105Z,44
2017-02-02T06:09:59.085Z,48
2017-02-02T06:10:59.070Z,44
2017-02-02T06:11:59.050Z,48
2017-02-02T06:12:59.033Z,48
2017-02-02T06:13:59.015Z,48
2017-02-02T06:14:58.995Z,48
2017-02-02T06:15:58.982Z,48
2017-02-02T06:16:58.574Z,12
2017-02-02T06:17:58.941Z,12
2017-02-02T06:18:58.922Z,16
2017-02-02T06:19:58.903Z,20
2017-02-02T06:20:58.887Z,20
2017-02-02T06:21:58.866Z,24
2017-02-02T06:22:58.849Z,28
2017-02-02T06:23:58.831Z,32
2017-02-02T06:24:58.810Z,40
2017-02-02T06:25:58.794Z,44
2017-02-02T06:26:58.776Z,52
2017-02-02T06:27:58.754Z,60
2017-02-02T06:28:58.738Z,72
2017-02-02T06:29:58.719Z,80
2017-02-02T06:30:58.315Z,92
2017-02-02T06:31:58.683Z,104
2017-02-02T06:32:58.662Z,120
2017-02-02T06:33:58.647Z,136
2017-02-02T06:34:58.630Z,152
2017-02-02T06:35:58.607Z,168
2017-02-02T06:36:58.589Z,192
2017-02-02T06:37:58.571Z,216
2017-02-02T06:38:58.554Z,236
2017-02-02T06:39:58.535Z,260
2017-02-02T06:40:58.515Z,288
2017-02-02T06:41:58.534Z,316
2017-02-02T06:42:58.478Z,348
2017-02-02T06:43:58.462Z,380
2017-02-02T06:44:58.444Z,412
2017-02-02T06:45:58.431Z,444
2017-02-02T06:46:58.415Z,476
2017-02-02T06:47:58.386Z,516
2017-02-02T06:48:57.981Z,556
2017-02-02T06:49:58.352Z,592
2017-02-02T06:50:58.333Z,636
2017-02-02T06:51:58.317Z,680
2017-02-02T06:52:58.305Z,720
2017-02-02T06:53:58.279Z,768
2017-02-02T06:54:57.874Z,816
2017-02-02T06:55:58.239Z,864
2017-02-02T06:56:58.229Z,916
2017-02-02T06:57:58.204Z,964
2017-02-02T06:58:58.186Z,1012
2017-02-02T06:59:58.165Z,1076
2017-02-02T07:00:58.152Z,1132
2017-02-02T07:01:58.129Z,1188
2017-02-02T07:02:58.112Z,1252
2017-02-02T07:03:58.094Z,1308
2017-02-02T07:04:58.076Z,1376
2017-02-02T07:05:58.055Z,1432
2017-02-02T07:06:58.035Z,1500
2017-02-02T07:07:58.023Z,1556
2017-02-02T07:08:58.001Z,1620
2017-02-02T07:09:57.985Z,1692
2017-02-02T07:10:57.964Z,1756
2017-02-02T07:11:57.947Z,1824
2017-02-02T07:12:57.931Z,1896
2017-02-02T07:13:57.911Z,1960
2017-02-02T07:14:57.893Z,2040
2017-02-02T07:15:57.877Z,2104
2017-02-02T07:16:57.861Z,2168
2017-02-02T07:17:57.839Z,2244
2017-02-02T07:18:57.820Z,2336
2017-02-02T07:19:57.803Z,2420
2017-02-02T07:20:57.782Z,2496
2017-02-02T07:21:57.765Z,2524
2017-02-02T07:22:57.750Z,2628
2017-02-02T07:23:57.343Z,2696
2017-02-02T07:24:57.717Z,2772
2017-02-02T07:25:57.692Z,2848
2017-02-02T07:26:57.676Z,2884
2017-02-02T07:27:57.661Z,3024
2017-02-02T07:28:57.676Z,3116
2017-02-02T07:29:57.623Z,3184
2017-02-02T07:30:57.624Z,3196
2017-02-02T07:31:57.588Z,3264
2017-02-02T07:32:57.568Z,3372
2017-02-02T07:33:57.554Z,3420
2017-02-02T07:34:57.157Z,3532
2017-02-02T07:35:57.518Z,3672
2017-02-02T07:36:57.507Z,3684
2017-02-02T07:37:57.484Z,3776
2017-02-02T07:38:57.484Z,3832
2017-02-02T07:39:57.060Z,3756
2017-02-02T07:40:57.431Z,3836
2017-02-02T07:41:57.414Z,3836
2017-02-02T07:42:57.396Z,3908
2017-02-02T07:43:57.378Z,4008
2017-02-02T07:44:57.364Z,4108
2017-02-02T07:45:56.959Z,4132
2017-02-02T07:46:57.331Z,4176
2017-02-02T07:47:57.314Z,4220
2017-02-02T07:48:57.292Z,4364
2017-02-02T07:49:56.893Z,4472
2017-02-02T07:50:57.261Z,4500
2017-02-02T07:51:57.246Z,4472
2017-02-02T07:52:57.226Z,4488
2017-02-02T07:53:57.207Z,4692
2017-02-02T07:54:57.188Z,4624
2017-02-02T07:55:57.173Z,4804
2017-02-02T07:56:57.159Z,4792
2017-02-02T07:57:57.140Z,4916
2017-02-02T07:58:57.123Z,4952
2017-02-02T07:59:57.106Z,5028
2017-02-02T08:00:57.085Z,5028
2017-02-02T08:01:57.067Z,5104
2017-02-02T08:02:56.670Z,5084
2017-02-02T08:03:57.036Z,5260
2017-02-02T08:04:56.636Z,5360
2017-02-02T08:05:57.003Z,5216
2017-02-02T08:06:56.982Z,5288
2017-02-02T08:07:56.971Z,5368
2017-02-02T08:08:56.565Z,5468
2017-02-02T08:09:56.935Z,5456
2017-02-02T08:10:56.921Z,5604
2017-02-02T08:11:56.514Z,5600
2017-02-02T08:12:56.497Z,5528
2017-02-02T08:13:56.865Z,5556
2017-02-02T08:14:56.464Z,5568
2017-02-02T08:15:56.445Z,5656
2017-02-02T08:16:56.822Z,5680
2017-02-02T08:17:56.414Z,5648
2017-02-02T08:18:56.399Z,5676
2017-02-02T08:19:56.379Z,5716
2017-02-02T08:20:56.363Z,5700
2017-02-02T08:21:56.735Z,5792
2017-02-02T08:22:56.715Z,5752
2017-02-02T08:23:56.702Z,5856
2017-02-02T08:24:56.682Z,5976
2017-02-02T08:25:56.666Z,5996
2017-02-02T08:26:56.652Z,5964
2017-02-02T08:27:56.635Z,6000
2017-02-02T08:28:56.616Z,6048
2017-02-02T08:29:56.600Z,6048
2017-02-02T08:30:56.581Z,6100
2017-02-02T08:31:56.190Z,6040
2017-02-02T08:32:56.567Z,6072
2017-02-02T08:33:56.536Z,6076
2017-02-02T08:34:56.517Z,6224
2017-02-02T08:35:56.504Z,6236
2017-02-02T08:36:56.483Z,6152
2017-02-02T08:37:56.472Z,6332
2017-02-02T08:38:56.450Z,6332
2017-02-02T08:39:56.048Z,6228
2017-02-02T08:40:56.423Z,6396
2017-02-02T08:41:56.402Z,6356
2017-02-02T08:42:56.384Z,6308
2017-02-02T08:43:56.375Z,6308
2017-02-02T08:44:56.351Z,6404
2017-02-02T08:45:56.336Z,6408
2017-02-02T08:46:56.321Z,6404
2017-02-02T08:47:56.303Z,6480
2017-02-02T08:48:56.285Z,6440
2017-02-02T08:49:56.278Z,6388
2017-02-02T08:50:56.253Z,6384
2017-02-02T08:51:56.271Z,6424
2017-02-02T08:52:56.221Z,6396
2017-02-02T08:53:56.206Z,6364
2017-02-02T08:54:56.192Z,6440
2017-02-02T08:55:56.173Z,6408
2017-02-02T08:56:56.158Z,6396
2017-02-02T08:57:56.142Z,6472
2017-02-02T08:58:56.127Z,6436
2017-02-02T08:59:56.112Z,6420
2017-02-02T09:00:56.097Z,6428
2017-02-02T09:01:56.080Z,6332
2017-02-02T09:02:56.063Z,6336
2017-02-02T09:03:56.049Z,6344
2017-02-02T09:04:56.030Z,6344
2017-02-02T09:05:56.015Z,6352
2017-02-02T09:06:55.999Z,6360
2017-02-02T09:07:55.986Z,6372
2017-02-02T09:08:55.201Z,6420
2017-02-02T09:09:55.951Z,6372
2017-02-02T09:10:55.940Z,6340
2017-02-02T09:11:55.921Z,6464
2017-02-02T09:12:56.189Z,6472
2017-02-02T09:13:56.145Z,6452
2017-02-02T09:14:55.871Z,6512
2017-02-02T09:15:55.859Z,6504
2017-02-02T09:16:55.849Z,6432
2017-02-02T09:17:55.826Z,6428
2017-02-02T09:18:55.811Z,6444
2017-02-02T09:19:55.795Z,6532
2017-02-02T09:20:55.397Z,6492
2017-02-02T09:21:55.773Z,6444
2017-02-02T09:22:55.750Z,6584
2017-02-02T09:23:55.348Z,6548
2017-02-02T09:24:55.718Z,6480
2017-02-02T09:25:55.701Z,6516
2017-02-02T09:26:55.687Z,6464
2017-02-02T09:27:55.674Z,6512
2017-02-02T09:28:55.658Z,6432
2017-02-02T09:29:55.641Z,6460
2017-02-02T09:30:55.638Z,6492
2017-02-02T09:31:55.611Z,6448
2017-02-02T09:32:55.597Z,6464
2017-02-02T09:33:55.581Z,6424
2017-02-02T09:34:55.569Z,6424
2017-02-02T09:35:55.548Z,6456
2017-02-02T09:36:55.535Z,6484
2017-02-02T09:37:55.136Z,6460
2017-02-02T09:38:55.118Z,6472
2017-02-02T09:39:55.489Z,6436
2017-02-02T09:40:55.480Z,6488
2017-02-02T09:41:55.464Z,6516
2017-02-02T09:42:55.449Z,6428
2017-02-02T09:43:55.428Z,6476
2017-02-02T09:44:55.415Z,6440
2017-02-02T09:45:55.401Z,6524
2017-02-02T09:46:55.385Z,6580
2017-02-02T09:47:55.375Z,6532
2017-02-02T09:48:55.356Z,6480
2017-02-02T09:49:54.954Z,6544
2017-02-02T09:50:55.324Z,6688
2017-02-02T09:51:55.311Z,6628
2017-02-02T09:52:55.307Z,6688
2017-02-02T09:53:54.892Z,6712
2017-02-02T09:54:55.264Z,6472
2017-02-02T09:55:55.249Z,6476
2017-02-02T09:56:55.239Z,6456
2017-02-02T09:57:55.221Z,6468
2017-02-02T09:58:55.227Z,6432
2017-02-02T09:59:55.193Z,6400
2017-02-02T10:00:55.177Z,6444
2017-02-02T10:01:55.187Z,6476
2017-02-02T10:02:55.143Z,6444
2017-02-02T10:03:55.128Z,6468
2017-02-02T10:04:55.114Z,6552
2017-02-02T10:05:55.124Z,6536
2017-02-02T10:06:55.084Z,6520
2017-02-02T10:07:54.687Z,6548
2017-02-02T10:08:55.054Z,6584
2017-02-02T10:09:55.039Z,6492
2017-02-02T10:10:55.025Z,6332
2017-02-02T10:11:55.016Z,6364
2017-02-02T10:12:54.992Z,6384
2017-02-02T10:13:54.979Z,6244
2017-02-02T10:14:54.968Z,6204
2017-02-02T10:15:54.974Z,6512
2017-02-02T10:16:54.934Z,6528
2017-02-02T10:17:54.916Z,6380
2017-02-02T10:18:54.902Z,6340
2017-02-02T10:19:54.893Z,6476
2017-02-02T10:20:54.874Z,6428
2017-02-02T10:21:54.502Z,6400
2017-02-02T10:22:54.844Z,6464
2017-02-02T10:23:54.833Z,6480
2017-02-02T10:24:54.817Z,6352
2017-02-02T10:25:54.801Z,6416
2017-02-02T10:26:54.782Z,6424
2017-02-02T10:27:54.389Z,6544
2017-02-02T10:28:54.762Z,6496
2017-02-02T10:29:54.740Z,6508
2017-02-02T10:30:54.726Z,6472
2017-02-02T10:31:54.707Z,6440
2017-02-02T10:32:54.693Z,6480
2017-02-02T10:33:54.682Z,6532
2017-02-02T10:34:54.665Z,6492
2017-02-02T10:35:54.657Z,6528
2017-02-02T10:36:54.639Z,6516
2017-02-02T10:37:54.622Z,6556
2017-02-02T10:38:54.229Z,6416
2017-02-02T10:39:54.591Z,6396
2017-02-02T10:40:54.578Z,6464
2017-02-02T10:41:54.569Z,6484
2017-02-02T10:42:54.549Z,6444
2017-02-02T10:43:54.147Z,6472
2017-02-02T10:44:54.520Z,6336
2017-02-02T10:45:54.509Z,6304
2017-02-02T10:46:54.108Z,6284
2017-02-02T10:47:54.480Z,6288
2017-02-02T10:48:54.466Z,6264
2017-02-02T10:49:54.446Z,6364
2017-02-02T10:50:54.434Z,6432
2017-02-02T10:51:54.419Z,6268
2017-02-02T10:52:54.407Z,6272
2017-02-02T10:53:54.391Z,6156
2017-02-02T10:54:53.988Z,5108
2017-02-02T10:55:53.976Z,4624
2017-02-02T10:56:54.346Z,4596
2017-02-02T10:57:54.361Z,4896
2017-02-02T10:58:54.317Z,5884
2017-02-02T10:59:54.302Z,7356
2017-02-02T11:00:54.287Z,8880
2017-02-02T11:01:54.274Z,10088
2017-02-02T11:02:54.260Z,11016
2017-02-02T11:03:54.246Z,11476
2017-02-02T11:04:54.234Z,11680
2017-02-02T11:05:54.216Z,11784
2017-02-02T11:06:54.203Z,11852
2017-02-02T11:07:54.191Z,11900
2017-02-02T11:08:54.175Z,11944
2017-02-02T11:09:54.161Z,12040
2017-02-02T11:10:54.147Z,12212
2017-02-02T11:11:54.132Z,12400
2017-02-02T11:12:54.121Z,12436
2017-02-02T11:13:54.107Z,12292
2017-02-02T11:14:54.092Z,12080
2017-02-02T11:15:54.081Z,11948
2017-02-02T11:16:54.071Z,11784
2017-02-02T11:17:54.058Z,11672
2017-02-02T11:18:54.041Z,11576
2017-02-02T11:19:54.028Z,11356
2017-02-02T11:20:54.016Z,11104
2017-02-02T11:21:54.004Z,10984
2017-02-02T11:22:53.994Z,11020
2017-02-02T11:23:53.991Z,11012
2017-02-02T11:24:53.580Z,10940
2017-02-02T11:25:53.954Z,10896
2017-02-02T11:26:53.949Z,10960
2017-02-02T11:27:53.930Z,10836
2017-02-02T11:28:53.919Z,10612
2017-02-02T11:29:53.925Z,10416
2017-02-02T11:30:53.892Z,10304
2017-02-02T11:31:53.495Z,10232
2017-02-02T11:32:53.873Z,10192
2017-02-02T11:33:53.856Z,10220
2017-02-02T11:34:53.849Z,10232
2017-02-02T11:35:53.832Z,10108
2017-02-02T11:36:53.822Z,9900
2017-02-02T11:37:53.809Z,9688
2017-02-02T11:38:53.412Z,9604
2017-02-02T11:39:53.789Z,9536
2017-02-02T11:40:53.776Z,9392
2017-02-02T11:41:53.763Z,9272
2017-02-02T11:42:53.760Z,9120
2017-02-02T11:43:53.742Z,9040
2017-02-02T11:44:53.344Z,9024
2017-02-02T11:45:53.332Z,8924
2017-02-02T11:46:53.321Z,8744
2017-02-02T11:47:53.691Z,8476
2017-02-02T11:48:53.694Z,8208
2017-02-02T11:49:53.669Z,7900
2017-02-02T11:50:53.688Z,7708
2017-02-02T11:51:53.648Z,7676
2017-02-02T11:52:53.636Z,7696
2017-02-02T11:53:53.240Z,7656
2017-02-02T11:54:53.618Z,7588
2017-02-02T11:55:53.605Z,7548
2017-02-02T11:56:53.204Z,7440
2017-02-02T11:57:53.576Z,7440
2017-02-02T11:58:53.567Z,7648
2017-02-02T11:59:52.781Z,7772
2017-02-02T12:00:53.546Z,7772
2017-02-02T12:01:53.530Z,7684
2017-02-02T12:02:53.135Z,7600
2017-02-02T12:03:53.506Z,7432
2017-02-02T12:04:53.112Z,7312
2017-02-02T12:05:53.098Z,7184
2017-02-02T12:06:53.470Z,6976
2017-02-02T12:07:53.505Z,6600
2017-02-02T12:08:53.462Z,6372
2017-02-02T12:09:53.050Z,6412
2017-02-02T12:10:53.429Z,6476
2017-02-02T12:11:53.415Z,6480
2017-02-02T12:12:53.404Z,6484
2017-02-02T12:13:53.395Z,6472
2017-02-02T12:14:52.992Z,6308
2017-02-02T12:15:52.980Z,6184
2017-02-02T12:16:53.350Z,6060
2017-02-02T12:17:53.340Z,5744
2017-02-02T12:18:53.342Z,5396
2017-02-02T12:19:53.326Z,5096
2017-02-02T12:20:53.313Z,4880
2017-02-02T12:21:53.301Z,4764
2017-02-02T12:22:53.284Z,4680
2017-02-02T12:23:53.269Z,4604
2017-02-02T12:24:53.289Z,4568
2017-02-02T12:25:52.859Z,4548
2017-02-02T12:26:53.233Z,4460
2017-02-02T12:27:52.833Z,4336
2017-02-02T12:28:53.214Z,4208
2017-02-02T12:29:53.198Z,4096
2017-02-02T12:30:52.798Z,3988
2017-02-02T12:31:53.173Z,3864
2017-02-02T12:32:52.773Z,3788
2017-02-02T12:33:53.148Z,3832
2017-02-02T12:34:52.754Z,3964
2017-02-02T12:35:53.126Z,4132
2017-02-02T12:36:53.120Z,4292
2017-02-02T12:37:52.717Z,4504
2017-02-02T12:38:53.091Z,4832
2017-02-02T12:39:53.074Z,5232
2017-02-02T12:40:53.063Z,5716
2017-02-02T12:41:52.665Z,6100
2017-02-02T12:42:53.033Z,6496
2017-02-02T12:43:53.026Z,6824
2017-02-02T12:44:52.624Z,6552
2017-02-02T12:45:53.025Z,5808
2017-02-02T12:46:52.986Z,5096
2017-02-02T12:47:52.973Z,4548
2017-02-02T12:48:52.998Z,4132
2017-02-02T12:49:52.946Z,3832
2017-02-02T12:50:52.935Z,3644
2017-02-02T12:51:52.536Z,3432
2017-02-02T12:52:52.907Z,3132
2017-02-02T12:53:52.506Z,2828
2017-02-02T12:54:52.497Z,2704
2017-02-02T12:55:52.482Z,2644
2017-02-02T12:56:52.484Z,2568
2017-02-02T12:57:52.846Z,2480
2017-02-02T12:58:52.833Z,2304
2017-02-02T12:59:52.820Z,2124
2017-02-02T13:00:52.807Z,2000
2017-02-02T13:01:52.800Z,1944
2017-02-02T13:02:52.783Z,1896
2017-02-02T13:03:52.801Z,1888
2017-02-02T13:04:52.792Z,1932
2017-02-02T13:05:52.357Z,2020
2017-02-02T13:06:52.742Z,2132
2017-02-02T13:07:52.720Z,2188
2017-02-02T13:08:52.705Z,2148
2017-02-02T13:09:52.308Z,2088
2017-02-02T13:10:52.678Z,2096
2017-02-02T13:11:52.670Z,2136
2017-02-02T13:12:52.653Z,2192
2017-02-02T13:13:52.642Z,2256
2017-02-02T13:14:52.636Z,2328
2017-02-02T13:15:52.615Z,2364
2017-02-02T13:16:52.607Z,2344
2017-02-02T13:17:52.203Z,2324
2017-02-02T13:18:52.576Z,2320
2017-02-02T13:19:52.568Z,2336
2017-02-02T13:20:52.551Z,2328
2017-02-02T13:21:52.538Z,2288
2017-02-02T13:22:52.533Z,2280
2017-02-02T13:23:52.520Z,2296
2017-02-02T13:24:52.498Z,2296
2017-02-02T13:25:52.487Z,2220
2017-02-02T13:26:52.093Z,2140
2017-02-02T13:27:52.074Z,2084
2017-02-02T13:28:52.065Z,2056
2017-02-02T13:29:52.441Z,1980
2017-02-02T13:30:52.428Z,1876
2017-02-02T13:31:52.409Z,1800
2017-02-02T13:32:52.398Z,1784
2017-02-02T13:33:52.385Z,1788
2017-02-02T13:34:52.371Z,1772
2017-02-02T13:35:52.359Z,1748
2017-02-02T13:36:52.345Z,1760
2017-02-02T13:37:52.334Z,1780
2017-02-02T13:38:52.321Z,1808
2017-02-02T13:39:52.308Z,1840
2017-02-02T13:40:52.295Z,1892
2017-02-02T13:41:52.284Z,1932
2017-02-02T13:42:52.269Z,1972
2017-02-02T13:43:52.257Z,2024
2017-02-02T13:44:52.244Z,2076
2017-02-02T13:45:52.232Z,2128
2017-02-02T13:46:52.218Z,2180
2017-02-02T13:47:52.205Z,2236
2017-02-02T13:48:52.197Z,2312
2017-02-02T13:49:52.179Z,2352
2017-02-02T13:50:52.166Z,2352
2017-02-02T13:51:52.156Z,2300
2017-02-02T13:52:52.144Z,2228
2017-02-02T13:53:52.127Z,2216
2017-02-02T13:54:52.115Z,2268
2017-02-02T13:55:52.098Z,2288